createdAt,value
2017-09-09T00:00:08.042Z,6.07
2017-09-09T00:02:35.817Z,5.13
2017-09-09T00:05:03.609Z,5.50
2017-09-09T00:07:31.343Z,4.03
2017-09-09T00:09:59.122Z,5.97
2017-09-09T00:12:26.831Z,4.50
2017-09-09T00:14:54.618Z,5.10
2017-09-09T00:17:22.486Z,5.20
2017-09-09T00:19:50.239Z,5.03
2017-09-09T00:22:17.996Z,4.00
2017-09-09T00:24:45.807Z,5.10
2017-09-09T00:27:14.629Z,4.87
2017-09-09T00:29:42.479Z,4.70
2017-09-09T00:32:10.166Z,4.07
2017-09-09T00:34:37.929Z,4.53
2017-09-09T00:37:05.647Z,5.40
2017-09-09T00:39:33.426Z,6.23
2017-09-09T00:42:01.177Z,5.20
2017-09-09T00:44:28.943Z,4.20
2017-09-09T00:46:56.731Z,5.27
2017-09-09T00:49:24.415Z,4.80
2017-09-09T00:51:52.301Z,5.57
2017-09-09T00:54:20.164Z,5.10
2017-09-09T00:56:47.963Z,5.10
2017-09-09T00:59:15.772Z,5.90
2017-09-09T01:01:43.485Z,5.40
2017-09-09T01:04:11.315Z,4.57
2017-09-09T01:06:39.082Z,6.50
2017-09-09T01:09:07.805Z,7.00
2017-09-09T01:11:35.685Z,6.10
2017-09-09T01:14:03.442Z,4.93
2017-09-09T01:16:31.218Z,4.37
2017-09-09T01:18:58.983Z,5.30
2017-09-09T01:21:26.688Z,5.50
2017-09-09T01:23:54.432Z,5.00
2017-09-09T01:26:22.242Z,5.00
2017-09-09T01:28:50.004Z,5.80
2017-09-09T01:31:17.676Z,4.80
2017-09-09T01:33:45.406Z,5.20
2017-09-09T01:36:13.117Z,4.67
2017-09-09T01:38:40.896Z,4.90
2017-09-09T01:41:08.613Z,4.77
2017-09-09T01:43:36.361Z,4.87
2017-09-09T01:46:04.183Z,6.17
2017-09-09T01:48:31.882Z,5.13
2017-09-09T01:50:59.583Z,6.13
2017-09-09T01:53:27.431Z,5.00
2017-09-09T01:55:55.153Z,6.07
2017-09-09T01:58:22.876Z,5.27
2017-09-09T02:00:50.652Z,4.40
2017-09-09T02:03:18.389Z,4.60
2017-09-09T02:05:46.085Z,5.30
2017-09-09T02:08:13.828Z,6.90
2017-09-09T02:10:41.496Z,5.33
2017-09-09T02:13:09.264Z,6.27
2017-09-09T02:15:37.075Z,5.10
2017-09-09T02:18:04.780Z,5.37
2017-09-09T02:20:32.604Z,6.20
2017-09-09T02:23:00.368Z,4.80
2017-09-09T02:25:28.119Z,6.00
2017-09-09T02:27:55.897Z,5.70
2017-09-09T02:30:23.598Z,6.27
2017-09-09T02:32:51.325Z,6.70
2017-09-09T02:35:19.020Z,6.40
2017-09-09T02:37:46.764Z,4.87
2017-09-09T02:40:14.497Z,4.60
2017-09-09T02:42:42.192Z,5.47
2017-09-09T02:45:09.978Z,6.80
2017-09-09T02:47:37.697Z,5.53
2017-09-09T02:50:05.412Z,5.50
2017-09-09T02:52:33.103Z,5.93
2017-09-09T02:55:00.850Z,5.50
2017-09-09T02:57:29.609Z,5.97
2017-09-09T02:59:57.352Z,5.80
2017-09-09T03:02:25.120Z,6.37
2017-09-09T03:04:52.835Z,5.17
2017-09-09T03:07:20.517Z,6.13
2017-09-09T03:09:48.314Z,6.17
2017-09-09T03:12:16.017Z,5.23
2017-09-09T03:14:43.755Z,4.50
2017-09-09T03:17:11.490Z,4.90
2017-09-09T03:19:39.276Z,5.70
2017-09-09T03:22:06.997Z,6.03
2017-09-09T03:24:34.700Z,4.90
2017-09-09T03:27:02.491Z,6.27
2017-09-09T03:29:30.169Z,7.20
2017-09-09T03:31:57.965Z,6.43
2017-09-09T03:34:25.642Z,5.40
2017-09-09T03:36:53.357Z,5.90
2017-09-09T03:39:21.100Z,5.87
2017-09-09T03:41:48.789Z,7.67
2017-09-09T03:44:16.539Z,5.23
2017-09-09T03:46:44.265Z,6.40
2017-09-09T03:49:11.989Z,5.73
2017-09-09T03:51:39.725Z,6.30
2017-09-09T03:54:07.417Z,6.20
2017-09-09T03:56:35.212Z,5.60
2017-09-09T03:59:02.929Z,6.00
2017-09-09T04:01:30.618Z,4.83
2017-09-09T04:03:58.383Z,6.03
2017-09-09T04:06:26.289Z,5.57
2017-09-09T04:08:54.048Z,6.30
2017-09-09T04:11:21.844Z,5.97
2017-09-09T04:13:49.689Z,5.40
2017-09-09T04:16:17.401Z,6.13
2017-09-09T04:18:45.080Z,6.60
2017-09-09T04:21:12.853Z,6.57
2017-09-09T04:23:40.566Z,5.87
2017-09-09T04:26:08.259Z,5.20
2017-09-09T04:28:36.005Z,6.00
2017-09-09T04:31:03.695Z,5.43
2017-09-09T04:33:31.462Z,6.50
2017-09-09T04:35:59.158Z,5.97
2017-09-09T04:38:26.906Z,6.17
2017-09-09T04:40:54.585Z,5.87
2017-09-09T04:43:22.403Z,6.07
2017-09-09T04:45:50.143Z,6.40
2017-09-09T04:48:17.903Z,6.47
2017-09-09T04:50:45.703Z,5.47
2017-09-09T04:53:13.405Z,6.70
2017-09-09T04:55:41.299Z,7.97
2017-09-09T04:58:09.088Z,7.70
2017-09-09T05:00:36.891Z,5.70
2017-09-09T05:03:04.693Z,6.90
2017-09-09T05:05:32.466Z,7.70
2017-09-09T05:08:00.234Z,6.67
2017-09-09T05:10:28.065Z,5.30
2017-09-09T05:12:55.827Z,6.20
2017-09-09T05:15:23.530Z,5.87
2017-09-09T05:17:51.252Z,7.07
2017-09-09T05:20:19.026Z,7.20
2017-09-09T05:22:46.780Z,6.50
2017-09-09T05:25:14.532Z,6.53
2017-09-09T05:27:42.313Z,5.83
2017-09-09T05:30:10.115Z,6.43
2017-09-09T05:32:37.913Z,5.93
2017-09-09T05:35:05.711Z,6.50
2017-09-09T05:37:33.614Z,6.90
2017-09-09T05:40:01.714Z,7.20
2017-09-09T05:42:29.598Z,9.13
2017-09-09T05:44:57.354Z,11.10
2017-09-09T05:47:27.104Z,8.60
2017-09-09T05:49:55.000Z,9.57
2017-09-09T05:52:22.814Z,6.47
2017-09-09T05:54:50.599Z,15.97
2017-09-09T05:57:18.361Z,12.50
2017-09-09T05:59:46.809Z,7.57
2017-09-09T06:02:16.038Z,14.60
2017-09-09T06:04:43.815Z,7.00
2017-09-09T06:07:11.635Z,7.40
2017-09-09T06:09:40.439Z,7.33
2017-09-09T06:12:13.838Z,8.50
2017-09-09T06:14:41.591Z,7.70
2017-09-09T06:17:10.246Z,9.43
2017-09-09T06:19:38.726Z,7.87
2017-09-09T06:22:07.210Z,7.47
2017-09-09T06:24:34.919Z,8.23
2017-09-09T06:27:04.129Z,8.57
2017-09-09T06:29:31.851Z,10.33
2017-09-09T06:31:59.605Z,10.10
2017-09-09T06:34:27.359Z,6.90
2017-09-09T06:36:55.077Z,7.17
2017-09-09T06:39:22.857Z,7.13
2017-09-09T06:41:50.566Z,6.50
2017-09-09T06:44:18.414Z,7.73
2017-09-09T06:46:46.313Z,7.70
2017-09-09T06:49:14.099Z,7.57
2017-09-09T06:51:41.900Z,7.20
2017-09-09T06:54:09.666Z,7.97
2017-09-09T06:56:38.035Z,8.07
2017-09-09T06:59:06.231Z,8.23
2017-09-09T07:01:34.034Z,8.97
2017-09-09T07:04:02.186Z,8.53
2017-09-09T07:06:29.951Z,8.20
2017-09-09T07:08:57.838Z,9.20
2017-09-09T07:11:25.642Z,9.27
2017-09-09T07:13:53.368Z,8.30
2017-09-09T07:16:21.141Z,6.53
2017-09-09T07:18:48.942Z,7.90
2017-09-09T07:21:16.665Z,8.50
2017-09-09T07:23:44.495Z,9.30
2017-09-09T07:26:12.237Z,9.27
2017-09-09T07:28:40.077Z,9.80
2017-09-09T07:31:07.858Z,10.60
2017-09-09T07:33:35.628Z,9.30
2017-09-09T07:36:03.446Z,8.20
2017-09-09T07:38:31.220Z,9.87
2017-09-09T07:40:58.946Z,9.70
2017-09-09T07:43:27.432Z,11.53
2017-09-09T07:45:55.183Z,9.93
2017-09-09T07:48:22.975Z,12.00
2017-09-09T07:50:50.750Z,10.23
2017-09-09T07:53:18.487Z,12.33
2017-09-09T07:55:46.325Z,11.70
2017-09-09T07:58:14.283Z,11.70
2017-09-09T08:00:42.158Z,11.10
2017-09-09T08:03:11.606Z,11.07
2017-09-09T08:05:39.974Z,12.10
2017-09-09T08:08:08.527Z,9.87
2017-09-09T08:10:36.478Z,10.13
2017-09-09T08:13:04.301Z,9.40
2017-09-09T08:15:32.068Z,10.23
2017-09-09T08:17:59.957Z,10.00
2017-09-09T08:20:27.698Z,9.40
2017-09-09T08:22:55.452Z,8.67
2017-09-09T08:25:23.555Z,8.03
2017-09-09T08:27:51.409Z,7.57
2017-09-09T08:30:20.383Z,6.93
2017-09-09T08:32:48.264Z,7.67
2017-09-09T08:35:16.060Z,8.33
2017-09-09T08:37:44.694Z,8.53
2017-09-09T08:40:12.474Z,8.23
2017-09-09T08:42:40.234Z,8.50
2017-09-09T08:45:07.998Z,8.17
2017-09-09T08:47:35.820Z,9.40
2017-09-09T08:50:03.555Z,8.93
2017-09-09T08:52:31.289Z,10.20
2017-09-09T08:54:59.123Z,10.00
2017-09-09T08:57:27.524Z,8.60
2017-09-09T08:59:55.270Z,10.80
2017-09-09T09:02:30.561Z,8.30
2017-09-09T09:05:00.471Z,8.73
2017-09-09T09:07:28.256Z,8.90
2017-09-09T09:09:56.074Z,7.50
2017-09-09T09:12:23.854Z,7.00
2017-09-09T09:14:51.699Z,7.50
2017-09-09T09:17:19.509Z,7.30
2017-09-09T09:19:47.271Z,7.83
2017-09-09T09:22:15.043Z,7.37
2017-09-09T09:24:42.820Z,8.40
2017-09-09T09:27:14.232Z,7.23
2017-09-09T09:29:56.525Z,8.00
2017-09-09T09:32:26.150Z,8.13
2017-09-09T09:34:55.412Z,8.13
2017-09-09T09:37:26.726Z,6.80
2017-09-09T09:39:56.093Z,8.50
2017-09-09T09:42:25.537Z,9.17
2017-09-09T09:44:56.669Z,7.43
2017-09-09T09:47:24.383Z,7.40
2017-09-09T09:49:52.673Z,7.80
2017-09-09T09:52:25.230Z,7.37
2017-09-09T09:54:57.294Z,7.37
2017-09-09T09:57:26.162Z,7.60
2017-09-09T09:59:55.812Z,7.90
2017-09-09T10:02:27.000Z,7.03
2017-09-09T10:04:59.246Z,8.33
2017-09-09T10:07:36.228Z,7.80
2017-09-09T10:10:43.178Z,7.90
2017-09-09T10:13:16.708Z,7.13
2017-09-09T10:15:49.136Z,8.20
2017-09-09T10:18:22.454Z,8.33
2017-09-09T10:21:01.520Z,8.33
2017-09-09T10:23:30.133Z,8.60
2017-09-09T10:25:58.375Z,8.60
2017-09-09T10:28:28.448Z,7.73
2017-09-09T10:30:56.413Z,9.07
2017-09-09T10:33:24.182Z,8.70
2017-09-09T10:35:52.398Z,6.60
2017-09-09T10:38:20.161Z,7.23
2017-09-09T10:40:47.909Z,6.87
2017-09-09T10:43:16.427Z,6.73
2017-09-09T10:45:46.689Z,7.27
2017-09-09T10:48:14.543Z,8.00
2017-09-09T10:50:42.597Z,6.40
2017-09-09T10:53:13.340Z,7.50
2017-09-09T10:55:42.161Z,6.87
2017-09-09T10:58:09.997Z,7.83
2017-09-09T11:00:37.773Z,9.70
2017-09-09T11:03:05.585Z,8.27
2017-09-09T11:05:33.811Z,7.80
2017-09-09T11:08:01.518Z,8.33
2017-09-09T11:10:30.271Z,8.83
2017-09-09T11:12:59.317Z,6.50
2017-09-09T11:15:27.037Z,8.53
2017-09-09T11:17:55.485Z,7.17
2017-09-09T11:20:24.710Z,7.20
2017-09-09T11:22:54.630Z,7.97
2017-09-09T11:25:23.972Z,6.83
2017-09-09T11:27:52.815Z,8.17
2017-09-09T11:30:20.611Z,7.50
2017-09-09T11:32:48.889Z,7.40
2017-09-09T11:35:24.444Z,6.33
2017-09-09T11:37:55.165Z,6.67
2017-09-09T11:40:25.040Z,7.90
2017-09-09T11:42:53.926Z,6.70
2017-09-09T11:45:22.369Z,7.50
2017-09-09T11:47:50.107Z,7.20
2017-09-09T11:50:17.900Z,7.10
2017-09-09T11:52:45.675Z,6.77
2017-09-09T11:55:13.852Z,7.87
2017-09-09T11:57:42.409Z,7.00
2017-09-09T12:00:10.214Z,6.80
2017-09-09T12:02:37.929Z,6.70
2017-09-09T12:05:05.722Z,6.80
2017-09-09T12:07:33.448Z,6.43
2017-09-09T12:10:01.248Z,7.17
2017-09-09T12:12:29.032Z,6.60
2017-09-09T12:14:56.785Z,6.70
2017-09-09T12:17:24.569Z,6.80
2017-09-09T12:19:53.356Z,6.70
2017-09-09T12:22:23.181Z,5.87
2017-09-09T12:24:50.919Z,7.30
2017-09-09T12:27:19.448Z,5.93
2017-09-09T12:29:48.155Z,6.10
2017-09-09T12:32:15.843Z,5.90
2017-09-09T12:34:43.554Z,6.83
2017-09-09T12:37:11.357Z,6.70
2017-09-09T12:39:39.515Z,6.80
2017-09-09T12:42:07.425Z,6.57
2017-09-09T12:44:35.165Z,5.87
2017-09-09T12:47:02.905Z,6.23
2017-09-09T12:49:30.744Z,6.00
2017-09-09T12:51:58.642Z,7.03
2017-09-09T12:54:26.456Z,6.10
2017-09-09T12:56:54.154Z,6.13
2017-09-09T12:59:22.919Z,6.50
2017-09-09T13:01:50.705Z,5.90
2017-09-09T13:04:18.509Z,6.50
2017-09-09T13:06:46.304Z,6.63
2017-09-09T13:09:14.186Z,6.90
2017-09-09T13:11:42.501Z,5.63
2017-09-09T13:14:10.199Z,6.80
2017-09-09T13:16:37.978Z,5.90
2017-09-09T13:19:07.233Z,5.70
2017-09-09T13:21:35.360Z,6.20
2017-09-09T13:24:04.305Z,6.40
2017-09-09T13:26:41.792Z,5.70
2017-09-09T13:29:12.297Z,5.90
2017-09-09T13:31:43.231Z,6.43
2017-09-09T13:34:13.877Z,6.40
2017-09-09T13:36:41.603Z,6.20
2017-09-09T13:39:10.725Z,5.87
2017-09-09T13:41:40.314Z,6.30
2017-09-09T13:44:08.096Z,7.47
2017-09-09T13:46:35.877Z,6.27
2017-09-09T13:49:03.825Z,6.17
2017-09-09T13:51:32.618Z,5.97
2017-09-09T13:54:00.413Z,6.10
2017-09-09T13:56:28.226Z,6.83
2017-09-09T13:58:55.975Z,6.23
2017-09-09T14:01:23.694Z,5.23
2017-09-09T14:03:51.542Z,5.63
2017-09-09T14:06:23.943Z,5.80
2017-09-09T14:08:53.536Z,6.30
2017-09-09T14:11:21.269Z,6.00
2017-09-09T14:13:51.023Z,4.77
2017-09-09T14:16:19.866Z,6.10
2017-09-09T14:18:51.258Z,5.37
2017-09-09T14:21:19.048Z,6.07
2017-09-09T14:23:49.374Z,5.63
2017-09-09T14:26:17.099Z,6.73
2017-09-09T14:28:44.930Z,5.20
2017-09-09T14:31:12.748Z,6.27
2017-09-09T14:33:40.473Z,5.87
2017-09-09T14:36:08.273Z,6.00
2017-09-09T14:38:36.042Z,5.90
2017-09-09T14:41:04.503Z,5.77
2017-09-09T14:43:32.363Z,5.47
2017-09-09T14:46:00.142Z,5.73
2017-09-09T14:48:28.043Z,6.23
2017-09-09T14:50:55.784Z,5.40
2017-09-09T14:53:24.530Z,6.53
2017-09-09T14:55:52.259Z,6.10
2017-09-09T14:58:20.025Z,5.30
2017-09-09T15:00:47.827Z,5.93
2017-09-09T15:03:15.566Z,5.43
2017-09-09T15:05:43.388Z,5.13
2017-09-09T15:08:11.907Z,6.07
2017-09-09T15:10:39.613Z,6.10
2017-09-09T15:13:07.384Z,6.67
2017-09-09T15:15:35.163Z,6.30
2017-09-09T15:18:03.739Z,5.30
2017-09-09T15:20:31.566Z,5.90
2017-09-09T15:22:59.319Z,6.30
2017-09-09T15:25:27.861Z,6.13
2017-09-09T15:27:55.854Z,5.60
2017-09-09T15:30:23.570Z,5.57
2017-09-09T15:32:52.239Z,6.10
2017-09-09T15:35:21.231Z,5.93
2017-09-09T15:37:49.696Z,6.13
2017-09-09T15:40:17.546Z,6.30
2017-09-09T15:42:45.357Z,6.23
2017-09-09T15:45:13.077Z,6.97
2017-09-09T15:47:40.996Z,6.80
2017-09-09T15:50:10.407Z,7.17
2017-09-09T15:52:38.158Z,7.60
2017-09-09T15:55:06.903Z,8.50
2017-09-09T15:57:34.647Z,7.70
2017-09-09T16:00:03.196Z,8.53
2017-09-09T16:02:31.044Z,7.77
2017-09-09T16:04:59.429Z,7.80
2017-09-09T16:07:28.256Z,7.90
2017-09-09T16:09:56.021Z,8.00
2017-09-09T16:12:23.765Z,7.23
2017-09-09T16:14:51.606Z,8.50
2017-09-09T16:17:19.308Z,8.57
2017-09-09T16:19:47.235Z,9.20
2017-09-09T16:22:14.983Z,9.67
2017-09-09T16:24:42.730Z,9.57
2017-09-09T16:27:10.569Z,10.47
2017-09-09T16:29:38.752Z,8.70
2017-09-09T16:32:06.475Z,9.80
2017-09-09T16:34:34.292Z,9.33
2017-09-09T16:37:02.084Z,8.90
2017-09-09T16:39:29.877Z,9.23
2017-09-09T16:41:57.730Z,8.10
2017-09-09T16:44:25.569Z,8.80
2017-09-09T16:46:53.402Z,8.10
2017-09-09T16:49:21.235Z,7.50
2017-09-09T16:51:49.011Z,8.03
2017-09-09T16:54:16.772Z,8.13
2017-09-09T16:56:47.517Z,15.60
2017-09-09T16:59:15.354Z,9.57
2017-09-09T17:01:43.077Z,10.87
2017-09-09T17:04:10.856Z,11.30
2017-09-09T17:06:39.341Z,9.20
2017-09-09T17:09:07.077Z,7.77
2017-09-09T17:11:34.815Z,8.23
2017-09-09T17:14:02.582Z,14.20
2017-09-09T17:16:31.596Z,14.40
2017-09-09T17:18:59.577Z,17.40
2017-09-09T17:21:27.413Z,12.20
2017-09-09T17:23:55.250Z,11.20
2017-09-09T17:26:23.886Z,9.77
2017-09-09T17:28:52.024Z,8.53
2017-09-09T17:31:19.863Z,11.07
2017-09-09T17:33:50.036Z,11.03
2017-09-09T17:36:17.812Z,9.23
2017-09-09T17:38:45.573Z,8.93
2017-09-09T17:41:14.548Z,7.83
2017-09-09T17:43:43.113Z,8.17
2017-09-09T17:46:10.903Z,7.87
2017-09-09T17:48:38.673Z,8.17
2017-09-09T17:51:06.486Z,9.47
2017-09-09T17:53:37.514Z,8.93
2017-09-09T17:56:06.411Z,8.23
2017-09-09T17:58:34.167Z,8.67
2017-09-09T18:01:01.959Z,13.83
2017-09-09T18:03:29.735Z,11.80
2017-09-09T18:05:58.325Z,10.07
2017-09-09T18:08:26.217Z,8.83
2017-09-09T18:10:54.045Z,8.20
2017-09-09T18:13:21.883Z,8.20
2017-09-09T18:15:50.498Z,8.40
2017-09-09T18:18:18.274Z,8.10
2017-09-09T18:20:48.233Z,7.73
2017-09-09T18:23:15.977Z,7.67
2017-09-09T18:25:44.553Z,8.70
2017-09-09T18:28:12.320Z,8.30
2017-09-09T18:30:40.103Z,13.03
2017-09-09T18:33:08.556Z,9.37
2017-09-09T18:35:36.567Z,9.37
2017-09-09T18:38:04.366Z,8.93
2017-09-09T18:40:32.111Z,8.20
2017-09-09T18:42:59.899Z,8.37
2017-09-09T18:45:27.657Z,7.60
2017-09-09T18:47:55.467Z,8.77
2017-09-09T18:50:24.186Z,8.80
2017-09-09T18:52:51.986Z,8.73
2017-09-09T18:55:19.936Z,9.33
2017-09-09T18:57:47.986Z,9.00
2017-09-09T19:00:15.839Z,8.70
2017-09-09T19:02:43.769Z,8.10
2017-09-09T19:05:11.695Z,7.50
2017-09-09T19:07:39.546Z,7.87
2017-09-09T19:10:07.447Z,8.20
2017-09-09T19:12:36.590Z,9.03
2017-09-09T19:24:14.927Z,8.80
2017-09-09T19:26:42.762Z,8.00
2017-09-09T19:29:10.634Z,8.23
2017-09-09T19:31:38.399Z,7.60
2017-09-09T19:34:06.157Z,7.23
2017-09-09T19:36:33.870Z,9.90
2017-09-09T19:39:02.689Z,7.87
2017-09-09T19:41:30.493Z,8.50
2017-09-09T19:43:58.390Z,8.40
2017-09-09T19:46:26.130Z,8.50
2017-09-09T19:48:53.975Z,8.20
2017-09-09T19:51:21.849Z,7.30
2017-09-09T19:53:49.761Z,8.10
2017-09-09T19:56:17.558Z,9.20
2017-09-09T19:58:45.678Z,8.73
2017-09-09T20:01:14.124Z,7.53
2017-09-09T20:03:41.921Z,8.77
2017-09-09T20:06:09.697Z,9.80
2017-09-09T20:08:38.000Z,10.47
2017-09-09T20:11:05.772Z,9.60
2017-09-09T20:13:34.654Z,8.90
2017-09-09T20:16:02.530Z,8.90
2017-09-09T20:18:34.063Z,8.40
2017-09-09T20:21:01.841Z,7.90
2017-09-09T20:23:29.748Z,8.07
2017-09-09T20:25:57.523Z,9.77
2017-09-09T20:28:26.176Z,8.70
2017-09-09T20:30:53.992Z,8.63
2017-09-09T20:33:21.794Z,7.87
2017-09-09T20:35:49.484Z,8.70
2017-09-09T20:38:17.255Z,8.50
2017-09-09T20:40:45.031Z,8.53
2017-09-09T20:43:12.795Z,8.93
2017-09-09T20:45:40.532Z,9.80
2017-09-09T20:48:09.097Z,9.80
2017-09-09T20:50:37.678Z,9.60
2017-09-09T20:53:05.523Z,6.33
2017-09-09T20:55:33.242Z,7.97
2017-09-09T20:58:01.056Z,9.43
2017-09-09T21:00:30.994Z,9.03
2017-09-09T21:02:59.026Z,7.70
2017-09-09T21:05:27.872Z,8.67
2017-09-09T21:07:55.598Z,8.70
2017-09-09T21:10:23.350Z,10.33
2017-09-09T21:12:51.190Z,9.43
2017-09-09T21:15:20.568Z,7.80
2017-09-09T21:17:48.308Z,8.50
2017-09-09T21:20:16.027Z,7.33
2017-09-09T21:22:44.484Z,10.10
2017-09-09T21:25:12.280Z,9.53
2017-09-09T21:27:41.058Z,8.83
2017-09-09T21:30:08.864Z,10.60
2017-09-09T21:32:36.620Z,9.53
2017-09-09T21:35:04.520Z,9.03
2017-09-09T21:37:32.325Z,9.33
2017-09-09T21:40:00.115Z,8.67
2017-09-09T21:42:27.845Z,7.53
2017-09-09T21:44:55.682Z,7.60
2017-09-09T21:47:23.494Z,9.50
2017-09-09T21:49:51.882Z,9.23
2017-09-09T21:52:20.369Z,10.50
2017-09-09T21:54:48.992Z,9.33
2017-09-09T21:57:19.290Z,9.37
2017-09-09T21:59:47.015Z,10.87
2017-09-09T22:02:14.808Z,18.63
2017-09-09T22:04:44.343Z,21.90
2017-09-09T22:07:12.119Z,14.67
2017-09-09T22:09:39.920Z,8.50
2017-09-09T22:12:07.661Z,8.90
2017-09-09T22:14:35.374Z,9.20
2017-09-09T22:17:04.305Z,8.07
2017-09-09T22:19:32.075Z,8.80
2017-09-09T22:21:59.852Z,8.43
2017-09-09T22:24:27.680Z,7.83
2017-09-09T22:26:55.402Z,8.60
2017-09-09T22:29:23.163Z,9.70
2017-09-09T22:31:50.949Z,8.13
2017-09-09T22:34:18.679Z,8.90
2017-09-09T22:36:46.613Z,8.07
2017-09-09T22:39:14.416Z,9.53
2017-09-09T22:41:42.244Z,8.57
2017-09-09T22:44:09.975Z,8.87
2017-09-09T22:46:37.817Z,8.03
2017-09-09T22:49:05.622Z,8.97
2017-09-09T22:51:33.419Z,9.53
2017-09-09T22:54:01.142Z,8.50
2017-09-09T22:56:28.892Z,8.77
2017-09-09T22:58:56.756Z,8.53
2017-09-09T23:01:24.572Z,9.37
2017-09-09T23:03:52.398Z,9.27
2017-09-09T23:06:20.070Z,8.73
2017-09-09T23:08:47.928Z,8.20
2017-09-09T23:11:16.399Z,8.80
2017-09-09T23:13:44.160Z,7.70
2017-09-09T23:16:11.990Z,9.43
2017-09-09T23:18:39.754Z,9.90
2017-09-09T23:21:07.530Z,8.47
2017-09-09T23:23:35.261Z,9.07
2017-09-09T23:26:03.042Z,8.67
2017-09-09T23:28:30.776Z,8.10
2017-09-09T23:30:58.483Z,7.87
2017-09-09T23:33:26.187Z,7.60
2017-09-09T23:35:54.031Z,8.60
2017-09-09T23:38:21.810Z,9.63
2017-09-09T23:40:49.653Z,9.80
2017-09-09T23:43:17.377Z,8.50
2017-09-09T23:45:45.086Z,8.60
2017-09-09T23:48:12.918Z,10.40
2017-09-09T23:50:40.659Z,9.40
2017-09-09T23:53:08.355Z,8.63
2017-09-09T23:55:36.229Z,8.33
2017-09-09T23:58:04.001Z,9.57
